Alisal, California
Current Conditions -  °F | °C
As of 1:53 AM on Friday 31 Oct 2014 (Local Time) from KSNS Reporting Station
Broken Clouds Broken Clouds  
Wind Chill: 59°   Ceiling: 2600
Heat Index: 59°   Visibility: 9mi
Dew Point: 53°   Wind: 7mph
Humidity: 81%   Direction: 80°E
Pressure: 29.93"   Gusts: NA
Location:  36.6786°N, 121.613°W
Report Text: KSNS 310853Z AUTO 08006KT 9SM BKN026 15/12 A2993 RMK AO2 SLP143 T01500117 52001
Loading
Personal Weather Stations






























Interactive Weather Map
Tropical Storm Tracking
New forecast layout! Learn more

10-Day Weather Forecast

Advertisements
Track Severe Weather on mobile